Dachau-Grobenried Airport


Codes: EDMD/
Name: Dachau-Grobenried Airport
City: Dachau
Country: Germany
Elevation: 1608 ft.

Photos at Dachau-Grobenried Airport


   Photos courtesy of SpottingLog. You can add your own sightings and photos by signing up for a free trial today.



No photos found.

Weather at Dachau-Grobenried Airport


Time (UTC)DescriptionTempratureWindCloud coverageVisibilityPressureHumidity
21-Jun-2024 12:00Light Rain22°C9 mph, NW40%10000m1019hPa66%
21-Jun-2024 15:00Light Rain22°C7 mph, NW49%10000m1017hPa67%
21-Jun-2024 18:00Moderate Rain19°C9 mph, W67%1613m1016hPa86%
21-Jun-2024 21:00Moderate Rain14°C9 mph, SW95%10000m1017hPa93%
22-Jun-2024 00:00Light Rain13°C4 mph, W98%10000m1017hPa92%
22-Jun-2024 03:00Light Rain13°C7 mph, SW100%10000m1017hPa95%
22-Jun-2024 06:00Overcast Clouds15°C9 mph, SW96%10000m1017hPa90%
22-Jun-2024 09:00Light Rain19°C9 mph, W60%10000m1016hPa68%
22-Jun-2024 12:00Light Rain20°C9 mph, W62%10000m1014hPa66%
22-Jun-2024 15:00Light Rain18°C11 mph, NW100%10000m1014hPa88%
22-Jun-2024 18:00Moderate Rain11°C11 mph, W100%3047m1017hPa97%
22-Jun-2024 21:00Moderate Rain12°C7 mph, W100%10000m1017hPa97%
23-Jun-2024 00:00Moderate Rain12°C2 mph, SW100%8685m1018hPa98%
23-Jun-2024 03:00Light Rain12°C0 mph, SW100%10000m1018hPa97%
23-Jun-2024 06:00Overcast Clouds13°C0 mph, NE100%10000m1018hPa93%
23-Jun-2024 09:00Overcast Clouds14°C4 mph, NE98%10000m1018hPa85%
23-Jun-2024 12:00Overcast Clouds16°C7 mph, NE98%10000m1018hPa76%
23-Jun-2024 15:00Overcast Clouds17°C7 mph, NE90%10000m1017hPa77%
23-Jun-2024 18:00Broken Clouds16°C7 mph, NE77%10000m1017hPa84%
23-Jun-2024 21:00Clear Sky13°C4 mph, NE9%10000m1018hPa92%
24-Jun-2024 00:00Clear Sky12°C4 mph, E8%10000m1018hPa97%
24-Jun-2024 03:00Broken Clouds14°C4 mph, NE79%10000m1017hPa94%
24-Jun-2024 06:00Broken Clouds16°C9 mph, E76%10000m1017hPa83%
24-Jun-2024 09:00Few Clouds19°C13 mph, E14%10000m1017hPa68%
24-Jun-2024 12:00Scattered Clouds22°C13 mph, NE27%10000m1015hPa61%
24-Jun-2024 15:00Overcast Clouds22°C9 mph, NE92%10000m1014hPa66%
24-Jun-2024 18:00Light Rain20°C9 mph, NE75%10000m1014hPa77%
24-Jun-2024 21:00Broken Clouds16°C11 mph, NE79%10000m1015hPa82%
25-Jun-2024 00:00Overcast Clouds15°C9 mph, NE85%10000m1014hPa87%
25-Jun-2024 03:00Overcast Clouds14°C7 mph, NE100%10000m1013hPa93%
25-Jun-2024 06:00Overcast Clouds16°C11 mph, E99%10000m1013hPa82%
25-Jun-2024 09:00Overcast Clouds19°C11 mph, E87%10000m1012hPa72%
25-Jun-2024 12:00Overcast Clouds20°C9 mph, E93%10000m1010hPa69%
25-Jun-2024 15:00Overcast Clouds22°C4 mph, NE100%10000m1008hPa71%
25-Jun-2024 18:00Light Rain20°C4 mph, N96%10000m1008hPa87%
25-Jun-2024 21:00Moderate Rain16°C7 mph, SW100%5678m1009hPa98%
26-Jun-2024 00:00Light Rain16°C7 mph, SW100%10000m1009hPa98%
26-Jun-2024 03:00Overcast Clouds15°C7 mph, SW85%10000m1009hPa98%
26-Jun-2024 06:00Broken Clouds17°C7 mph, SW80%10000m1009hPa93%
26-Jun-2024 09:00Light Rain20°C7 mph, SW89%10000m1010hPa78%